Time;durP1;ratioP1;P1;durP2;ratioP2;P2;SDS_P1;SDS_P2;PMS_P1;PMS_P2;Temp;Humidity;BMP_temperature;BMP_pressure;BME280_temperature;BME280_humidity;BME280_pressure;Samples;Min_cycle;Max_cycle;Signal;HPM_P1;HPM_P2
2022/11/28 00:00:07;;;;;;;9.70;8.43;;;6.60;99.90;;;;;;5013230;28;20045;-62
2022/11/28 00:02:32;;;;;;;13.30;7.40;;;6.60;99.90;;;;;;5002458;28;20048;-63
2022/11/28 00:04:58;;;;;;;9.48;7.75;;;6.60;99.90;;;;;;5012612;28;20118;-62
2022/11/28 00:07:26;;;;;;;9.90;8.02;;;6.70;99.90;;;;;;5006339;28;20046;-63
2022/11/28 00:09:52;;;;;;;11.15;7.20;;;6.70;99.90;;;;;;5006004;28;20073;-65
2022/11/28 00:12:17;;;;;;;11.07;8.02;;;6.60;99.90;;;;;;5012792;28;20104;-63
2022/11/28 00:14:43;;;;;;;11.63;8.38;;;6.60;99.90;;;;;;5012910;28;20354;-64
2022/11/28 00:17:10;;;;;;;10.57;8.38;;;6.60;99.90;;;;;;5008841;28;20030;-61
2022/11/28 00:19:35;;;;;;;9.52;7.10;;;6.60;99.90;;;;;;5002056;28;20451;-63
2022/11/28 00:22:01;;;;;;;11.27;8.70;;;6.70;99.90;;;;;;4997615;28;20126;-63
2022/11/28 00:24:27;;;;;;;10.60;8.23;;;6.60;99.90;;;;;;4983324;28;20526;-63
2022/11/28 00:26:52;;;;;;;13.70;7.80;;;6.70;99.90;;;;;;4993948;28;20351;-66
2022/11/28 00:29:18;;;;;;;11.82;8.65;;;6.70;99.90;;;;;;5012248;28;20065;-64
2022/11/28 00:31:43;;;;;;;10.10;7.95;;;6.70;99.90;;;;;;5012673;28;20165;-63
2022/11/28 00:34:11;;;;;;;12.88;8.25;;;6.60;99.90;;;;;;5012677;28;20044;-63
2022/11/28 00:36:37;;;;;;;11.20;9.13;;;6.70;99.90;;;;;;5012206;28;20473;-63
2022/11/28 00:39:03;;;;;;;10.57;7.88;;;6.70;99.90;;;;;;4977698;28;20049;-67
2022/11/28 00:41:32;;;;;;;10.68;8.27;;;6.70;99.90;;;;;;5012872;28;20092;-64
2022/11/28 00:43:58;;;;;;;11.52;8.82;;;6.70;99.90;;;;;;5012491;28;20045;-66
2022/11/28 00:46:25;;;;;;;12.10;8.48;;;6.70;99.90;;;;;;4998526;28;20115;-64
2022/11/28 00:48:51;;;;;;;12.23;7.70;;;6.70;99.90;;;;;;5007101;28;20038;-65
2022/11/28 00:51:19;;;;;;;10.70;8.93;;;6.70;99.90;;;;;;5012167;28;20037;-64
2022/11/28 00:53:48;;;;;;;9.70;7.78;;;6.70;99.90;;;;;;5012218;28;20124;-64
2022/11/28 00:56:17;;;;;;;11.70;7.95;;;6.70;99.90;;;;;;5011483;28;20496;-63
2022/11/28 00:58:43;;;;;;;11.80;7.47;;;6.70;99.90;;;;;;5005151;28;20077;-64
2022/11/28 01:01:14;;;;;;;10.27;7.88;;;6.80;99.90;;;;;;5011963;28;20030;-63
2022/11/28 01:03:41;;;;;;;12.80;8.60;;;6.80;99.90;;;;;;5012040;28;20038;-63
2022/11/28 01:06:08;;;;;;;11.93;7.43;;;6.80;99.90;;;;;;5011457;28;20053;-64
2022/11/28 01:08:33;;;;;;;12.25;8.55;;;6.80;99.90;;;;;;4999077;28;20042;-64
2022/11/28 01:10:59;;;;;;;14.25;8.07;;;6.80;99.90;;;;;;5011980;28;20088;-64
2022/11/28 01:13:25;;;;;;;11.20;8.70;;;6.80;99.90;;;;;;5011476;28;20107;-65
2022/11/28 01:15:51;;;;;;;11.30;8.65;;;6.80;99.90;;;;;;4993900;28;20324;-63
2022/11/28 01:18:17;;;;;;;12.23;8.35;;;6.80;99.90;;;;;;4999211;28;20116;-64
2022/11/28 01:20:43;;;;;;;11.18;8.90;;;6.90;99.90;;;;;;5009971;28;20304;-64
2022/11/28 01:23:08;;;;;;;14.77;9.48;;;6.80;99.90;;;;;;5011661;28;20046;-64
2022/11/28 01:25:34;;;;;;;11.90;8.57;;;6.90;99.90;;;;;;4993965;28;20049;-64
2022/11/28 01:28:00;;;;;;;13.82;9.63;;;6.80;99.90;;;;;;5009663;28;20463;-64
2022/11/28 01:30:32;;;;;;;13.13;8.55;;;6.80;99.90;;;;;;5011433;28;20469;-64
2022/11/28 01:32:58;;;;;;;14.60;10.10;;;6.80;99.90;;;;;;5011344;28;20042;-63
2022/11/28 01:35:23;;;;;;;10.85;9.40;;;6.80;99.90;;;;;;5011079;28;20078;-65
2022/11/28 01:37:49;;;;;;;13.68;9.48;;;6.80;99.90;;;;;;5007910;28;20199;-64
2022/11/28 01:40:14;;;;;;;14.32;10.10;;;6.80;99.90;;;;;;5000303;28;20058;-64
2022/11/28 01:42:40;;;;;;;11.95;8.35;;;6.80;99.90;;;;;;4974798;28;20466;-64
2022/11/28 01:45:17;;;;;;;12.80;9.63;;;6.80;99.90;;;;;;4993204;28;20046;-64
2022/11/28 01:47:51;;;;;;;12.75;9.45;;;6.80;99.90;;;;;;4988750;28;20050;-65
2022/11/28 01:50:19;;;;;;;12.90;8.23;;;6.80;99.90;;;;;;4993685;28;20455;-64
2022/11/28 01:52:48;;;;;;;12.68;9.23;;;6.80;99.90;;;;;;4993371;28;20512;-65
2022/11/28 01:55:19;;;;;;;12.85;8.80;;;6.90;99.90;;;;;;5010830;28;20042;-65
2022/11/28 01:57:45;;;;;;;12.93;8.00;;;6.80;99.90;;;;;;5004406;28;20039;-64
2022/11/28 02:00:17;;;;;;;11.63;8.88;;;6.90;99.90;;;;;;5011157;28;20486;-64
2022/11/28 02:02:54;;;;;;;12.90;9.20;;;6.90;99.90;;;;;;4993803;28;20049;-64
2022/11/28 02:05:21;;;;;;;12.77;9.13;;;6.90;99.90;;;;;;4997088;28;20172;-64
2022/11/28 02:07:49;;;;;;;12.82;8.02;;;6.90;99.90;;;;;;4985804;28;20401;-64
2022/11/28 02:10:21;;;;;;;13.25;9.77;;;7.00;99.90;;;;;;5007533;28;20057;-63
2022/11/28 02:13:25;;;;;;;13.80;9.73;;;6.90;99.90;;;;;;5011030;28;20042;-64
2022/11/28 02:16:09;;;;;;;15.05;8.70;;;7.00;99.90;;;;;;4986957;28;20477;-63
2022/11/28 02:18:54;;;;;;;13.07;8.63;;;7.00;99.90;;;;;;4972726;28;20055;-63
2022/11/28 02:21:28;;;;;;;12.90;10.18;;;7.00;99.90;;;;;;4993960;28;20049;-64
2022/11/28 02:24:18;;;;;;;15.50;10.65;;;7.00;99.90;;;;;;5010897;28;20497;-63
2022/11/28 02:27:21;;;;;;;14.95;10.05;;;7.00;99.90;;;;;;4998713;28;20354;-64
2022/11/28 02:29:58;;;;;;;17.80;12.52;;;6.90;99.90;;;;;;4989864;28;20064;-64
2022/11/28 02:32:40;;;;;;;17.30;11.25;;;7.00;99.90;;;;;;5012864;28;20049;-64
2022/11/28 02:35:24;;;;;;;15.85;12.57;;;7.00;99.90;;;;;;5014370;28;20045;-64
2022/11/28 02:38:28;;;;;;;17.17;10.70;;;6.90;99.90;;;;;;5011722;28;20034;-63
2022/11/28 02:40:59;;;;;;;17.30;12.52;;;7.00;99.90;;;;;;4983765;28;20061;-64
2022/11/28 02:43:56;;;;;;;16.42;10.82;;;7.00;99.90;;;;;;5014485;28;20121;-64
2022/11/28 02:46:27;;;;;;;16.92;10.63;;;7.00;99.90;;;;;;5013859;28;20426;-67
2022/11/28 02:49:21;;;;;;;14.48;12.32;;;7.00;99.90;;;;;;5010233;28;20200;-65
2022/11/28 02:51:53;;;;;;;20.00;13.43;;;7.00;99.90;;;;;;5014415;28;20085;-63
2022/11/28 02:54:20;;;;;;;17.80;11.43;;;7.10;99.90;;;;;;5014205;28;20130;-62
2022/11/28 02:56:48;;;;;;;13.80;12.32;;;7.10;99.90;;;;;;4996684;28;20148;-64
2022/11/28 02:59:45;;;;;;;14.88;11.10;;;7.10;99.90;;;;;;4991092;28;20046;-63
2022/11/28 03:02:27;;;;;;;15.40;13.63;;;7.10;99.90;;;;;;4982867;28;20454;-64
2022/11/28 03:05:14;;;;;;;20.05;12.23;;;7.20;99.90;;;;;;5013828;28;20045;-66
2022/11/28 03:08:09;;;;;;;18.63;13.45;;;7.20;99.90;;;;;;5007447;28;20057;-64
2022/11/28 03:10:56;;;;;;;19.67;13.15;;;7.20;99.90;;;;;;5008000;28;20038;-63
2022/11/28 03:13:55;;;;;;;16.63;11.70;;;7.20;99.90;;;;;;5007911;28;20042;-63
2022/11/28 03:16:38;;;;;;;20.88;12.40;;;7.20;99.90;;;;;;4995090;28;20466;-64
2022/11/28 03:19:20;;;;;;;17.65;12.27;;;7.20;99.90;;;;;;5000681;28;20044;-63
2022/11/28 03:22:12;;;;;;;16.90;12.88;;;7.30;99.90;;;;;;5013804;28;20395;-64
2022/11/28 03:24:46;;;;;;;17.70;12.77;;;7.30;99.90;;;;;;4991781;28;20529;-63
2022/11/28 03:27:22;;;;;;;15.98;10.55;;;7.40;99.90;;;;;;5011476;28;20096;-63
2022/11/28 03:29:55;;;;;;;17.10;12.07;;;7.30;99.90;;;;;;5003781;28;20108;-63
2022/11/28 03:32:34;;;;;;;18.90;12.70;;;7.30;99.90;;;;;;5011244;28;20054;-63
2022/11/28 03:35:22;;;;;;;17.08;12.65;;;7.40;99.90;;;;;;4993534;28;20691;-64
2022/11/28 03:37:56;;;;;;;16.55;10.85;;;7.40;99.90;;;;;;5010295;28;20026;-63
2022/11/28 03:40:26;;;;;;;15.75;12.95;;;7.40;99.90;;;;;;5013630;28;20100;-63
2022/11/28 03:43:03;;;;;;;21.25;11.52;;;7.40;99.90;;;;;;5012092;28;20046;-63
2022/11/28 03:45:36;;;;;;;17.45;13.32;;;7.50;99.90;;;;;;5012815;28;20510;-63
2022/11/28 03:48:09;;;;;;;18.15;13.48;;;7.40;99.90;;;;;;5009206;28;20038;-62
2022/11/28 03:50:47;;;;;;;18.92;11.68;;;7.50;99.90;;;;;;5013385;28;20041;-61
2022/11/28 03:53:21;;;;;;;25.85;13.23;;;7.40;99.90;;;;;;4980406;28;20228;-61
2022/11/28 03:55:59;;;;;;;17.33;13.10;;;7.40;99.90;;;;;;5012919;28;20068;-63
2022/11/28 03:58:51;;;;;;;17.38;12.02;;;7.50;99.90;;;;;;4992429;28;20370;-64
2022/11/28 04:01:27;;;;;;;18.98;14.30;;;7.40;99.90;;;;;;5009198;28;20176;-63
2022/11/28 04:03:57;;;;;;;16.67;12.23;;;7.40;99.90;;;;;;5012459;28;20117;-63
2022/11/28 04:06:47;;;;;;;16.67;13.82;;;7.40;99.90;;;;;;4993135;28;20042;-64
2022/11/28 04:09:20;;;;;;;16.08;11.95;;;7.40;99.90;;;;;;4991840;28;20057;-63
2022/11/28 04:12:08;;;;;;;17.77;13.70;;;7.50;99.90;;;;;;5007802;28;20042;-64
2022/11/28 04:14:46;;;;;;;14.88;11.88;;;7.50;99.90;;;;;;5012925;28;20038;-64
2022/11/28 04:17:18;;;;;;;14.27;11.95;;;7.50;99.90;;;;;;5010652;28;20053;-63
2022/11/28 04:19:52;;;;;;;15.70;11.73;;;7.50;99.90;;;;;;4992982;28;20484;-65
2022/11/28 04:22:50;;;;;;;15.18;12.57;;;7.50;99.90;;;;;;4992596;28;20072;-65
2022/11/28 04:25:20;;;;;;;15.25;10.00;;;7.60;99.90;;;;;;5012330;28;20049;-64
2022/11/28 04:27:56;;;;;;;13.95;11.38;;;7.50;99.90;;;;;;5005840;28;20030;-62
2022/11/28 04:30:22;;;;;;;16.92;12.32;;;7.60;99.90;;;;;;5006536;28;20046;-64
2022/11/28 04:32:50;;;;;;;14.10;11.20;;;7.60;99.90;;;;;;5012374;28;20121;-64
2022/11/28 04:35:38;;;;;;;13.10;10.07;;;7.60;99.90;;;;;;5012263;28;20173;-66
2022/11/28 04:38:06;;;;;;;13.50;10.10;;;7.60;99.90;;;;;;4988781;28;20030;-61
2022/11/28 04:40:39;;;;;;;14.43;10.82;;;7.60;99.90;;;;;;5012367;28;20037;-63
2022/11/28 04:43:12;;;;;;;13.07;10.75;;;7.60;99.90;;;;;;5012293;28;20141;-64
2022/11/28 04:45:52;;;;;;;14.07;11.00;;;7.60;99.90;;;;;;5011862;28;20386;-62
2022/11/28 04:48:18;;;;;;;14.80;9.80;;;7.60;99.90;;;;;;5008999;28;20099;-63
2022/11/28 04:50:51;;;;;;;15.63;11.52;;;7.70;99.90;;;;;;5012374;28;20056;-63
2022/11/28 04:53:29;;;;;;;15.23;10.80;;;7.70;99.90;;;;;;5004980;28;20042;-64
2022/11/28 04:56:00;;;;;;;13.63;11.90;;;7.70;99.90;;;;;;4988168;28;20112;-64
2022/11/28 04:58:35;;;;;;;14.45;12.30;;;7.70;99.90;;;;;;5000348;28;20129;-64
2022/11/28 05:01:05;;;;;;;15.38;11.73;;;7.70;99.90;;;;;;5002716;28;20132;-63
2022/11/28 05:03:31;;;;;;;13.82;11.95;;;7.70;99.90;;;;;;5011971;28;20145;-63
2022/11/28 05:05:57;;;;;;;14.10;10.77;;;7.70;99.90;;;;;;5011590;28;20049;-64
2022/11/28 05:08:23;;;;;;;12.57;9.32;;;7.70;99.90;;;;;;5001323;28;20057;-64
2022/11/28 05:10:48;;;;;;;14.02;12.35;;;7.70;99.90;;;;;;5011994;28;20339;-62
2022/11/28 05:13:14;;;;;;;15.35;10.95;;;7.70;99.90;;;;;;5011936;28;20045;-64
2022/11/28 05:15:41;;;;;;;13.15;11.63;;;7.60;99.90;;;;;;5011744;28;20350;-65
2022/11/28 05:18:06;;;;;;;15.73;10.75;;;7.70;99.90;;;;;;5003417;28;20034;-64
2022/11/28 05:20:33;;;;;;;14.15;12.30;;;7.70;99.90;;;;;;5008607;28;20036;-63
2022/11/28 05:22:58;;;;;;;14.18;10.25;;;7.70;99.90;;;;;;5011709;28;20050;-64
2022/11/28 05:25:24;;;;;;;13.55;11.95;;;7.70;99.90;;;;;;4994068;28;20042;-65
2022/11/28 05:27:50;;;;;;;12.30;9.18;;;7.70;99.90;;;;;;5005084;28;20447;-64
2022/11/28 05:30:15;;;;;;;12.85;10.93;;;7.70;99.90;;;;;;4992075;28;20034;-62
2022/11/28 05:32:41;;;;;;;12.15;10.77;;;7.70;99.90;;;;;;5010191;28;20048;-63
2022/11/28 05:35:07;;;;;;;13.07;9.60;;;7.70;99.90;;;;;;5011201;28;20370;-63
2022/11/28 05:37:32;;;;;;;11.60;8.88;;;7.70;99.90;;;;;;5009652;28;20038;-63
2022/11/28 05:39:58;;;;;;;10.68;9.43;;;7.80;99.90;;;;;;4994434;28;20041;-63
2022/11/28 05:42:24;;;;;;;13.30;8.73;;;7.80;99.90;;;;;;5011535;28;20048;-63
2022/11/28 05:44:50;;;;;;;10.63;8.82;;;7.70;99.90;;;;;;5011503;28;20042;-63
2022/11/28 05:47:16;;;;;;;10.23;9.13;;;7.70;99.90;;;;;;5009412;28;20041;-64
2022/11/28 05:49:42;;;;;;;10.68;8.55;;;7.80;99.90;;;;;;5010382;28;20054;-64
2022/11/28 05:52:07;;;;;;;11.68;9.32;;;7.80;99.90;;;;;;5010994;28;20081;-63
2022/11/28 05:54:33;;;;;;;10.60;8.80;;;7.80;99.90;;;;;;5010980;28;20054;-67
2022/11/28 05:56:59;;;;;;;11.05;8.57;;;7.80;99.90;;;;;;4986127;28;20152;-63
2022/11/28 05:59:24;;;;;;;10.70;8.65;;;7.90;99.90;;;;;;4978244;28;20100;-65
2022/11/28 06:01:50;;;;;;;11.52;8.10;;;7.90;99.90;;;;;;4988406;28;20050;-64
2022/11/28 06:04:15;;;;;;;10.93;8.95;;;7.80;99.90;;;;;;4974923;28;20367;-64
2022/11/28 06:06:41;;;;;;;11.02;9.10;;;7.90;99.90;;;;;;4986926;28;20099;-63
2022/11/28 06:09:07;;;;;;;12.82;8.70;;;7.90;99.90;;;;;;4987774;28;20063;-63
2022/11/28 06:11:33;;;;;;;11.25;8.80;;;7.80;99.90;;;;;;4979602;28;20050;-63
2022/11/28 06:13:59;;;;;;;11.57;8.75;;;7.90;99.90;;;;;;4995070;28;20061;-64
2022/11/28 06:16:27;;;;;;;12.02;9.90;;;7.90;99.90;;;;;;4994775;28;20034;-62
2022/11/28 06:19:04;;;;;;;12.23;8.88;;;7.90;99.90;;;;;;4995537;28;20049;-63
2022/11/28 06:21:32;;;;;;;12.70;9.25;;;7.80;99.90;;;;;;4975003;28;20041;-65
2022/11/28 06:23:59;;;;;;;11.30;9.50;;;7.90;99.90;;;;;;4967720;28;20117;-63
2022/11/28 06:26:26;;;;;;;12.10;9.07;;;7.80;99.90;;;;;;4967891;28;20046;-63
2022/11/28 06:28:54;;;;;;;12.45;10.23;;;7.80;99.90;;;;;;4995718;28;20041;-65
2022/11/28 06:31:23;;;;;;;12.88;10.57;;;7.90;99.90;;;;;;4975958;28;20046;-64
2022/11/28 06:33:49;;;;;;;12.48;10.65;;;7.90;99.90;;;;;;4995839;28;20034;-63
2022/11/28 06:36:16;;;;;;;13.13;8.82;;;7.90;99.90;;;;;;4995952;28;20038;-62
2022/11/28 06:38:42;;;;;;;12.55;10.35;;;7.90;99.90;;;;;;4975992;28;20089;-63
2022/11/28 06:41:10;;;;;;;13.68;10.27;;;7.90;99.90;;;;;;4994193;28;20061;-63
2022/11/28 06:43:36;;;;;;;12.52;10.75;;;7.90;99.90;;;;;;4995651;28;20042;-64
2022/11/28 06:46:02;;;;;;;11.90;10.55;;;7.90;99.90;;;;;;4995253;28;20062;-64
2022/11/28 06:48:28;;;;;;;13.10;10.18;;;7.80;99.90;;;;;;4994890;28;20050;-64
2022/11/28 06:51:00;;;;;;;12.55;10.50;;;7.90;99.90;;;;;;4963190;28;20039;-64
2022/11/28 06:53:25;;;;;;;10.70;9.60;;;7.90;99.90;;;;;;4983105;28;20070;-64
2022/11/28 06:55:51;;;;;;;11.95;9.65;;;7.90;99.90;;;;;;4995510;28;20046;-63
2022/11/28 06:58:17;;;;;;;11.48;10.27;;;8.00;99.90;;;;;;4995146;28;20054;-65
2022/11/28 07:00:44;;;;;;;11.40;10.30;;;7.90;99.90;;;;;;5003103;28;20516;-64
2022/11/28 07:03:11;;;;;;;14.02;10.15;;;7.90;99.90;;;;;;5005354;28;20059;-64
2022/11/28 07:05:37;;;;;;;12.40;10.27;;;7.90;99.90;;;;;;4976122;28;20503;-64
2022/11/28 07:08:02;;;;;;;16.17;9.75;;;7.90;99.90;;;;;;4978432;28;20133;-64
2022/11/28 07:10:28;;;;;;;12.90;9.63;;;7.90;99.90;;;;;;4976870;28;20129;-65
2022/11/28 07:12:59;;;;;;;12.48;10.98;;;8.00;99.90;;;;;;4963530;28;20404;-63
2022/11/28 07:15:25;;;;;;;13.00;11.60;;;7.90;99.90;;;;;;4975656;28;20353;-64
2022/11/28 07:17:51;;;;;;;15.45;11.23;;;7.90;99.90;;;;;;4976997;28;20046;-64
2022/11/28 07:20:17;;;;;;;12.38;9.23;;;7.90;99.90;;;;;;4975351;28;20051;-64
2022/11/28 07:22:45;;;;;;;12.73;10.93;;;7.90;99.90;;;;;;4977974;28;20054;-63
2022/11/28 07:25:13;;;;;;;12.85;11.25;;;7.90;99.90;;;;;;4959225;28;20043;-63
2022/11/28 07:27:40;;;;;;;11.13;9.05;;;7.90;99.90;;;;;;4962411;28;20101;-62
2022/11/28 07:30:07;;;;;;;12.98;10.10;;;7.90;99.90;;;;;;4942396;28;20101;-64
2022/11/28 07:32:33;;;;;;;12.07;10.45;;;7.80;99.90;;;;;;4961353;28;20776;-64
2022/11/28 07:34:59;;;;;;;12.43;9.68;;;7.90;99.90;;;;;;4990214;28;20039;-64
2022/11/28 07:37:24;;;;;;;12.13;10.45;;;7.90;99.90;;;;;;4990250;28;20049;-64
2022/11/28 07:39:50;;;;;;;11.68;9.68;;;7.90;99.90;;;;;;4994545;28;20050;-63
2022/11/28 07:42:16;;;;;;;11.52;10.13;;;7.90;99.90;;;;;;4993979;28;20376;-63
2022/11/28 07:44:41;;;;;;;11.68;10.00;;;7.90;99.90;;;;;;4994672;28;20038;-64
2022/11/28 07:47:07;;;;;;;11.50;10.20;;;7.90;99.90;;;;;;4977347;28;20087;-63
2022/11/28 07:49:32;;;;;;;13.98;10.05;;;7.90;99.90;;;;;;4994536;28;20045;-64
2022/11/28 07:51:58;;;;;;;12.95;10.70;;;7.90;99.90;;;;;;4993712;28;20430;-63
2022/11/28 07:54:23;;;;;;;10.90;9.80;;;7.90;99.90;;;;;;4994732;28;20147;-64
2022/11/28 07:56:49;;;;;;;11.60;9.40;;;7.90;99.90;;;;;;4994636;28;20054;-65
2022/11/28 07:59:15;;;;;;;11.45;9.35;;;8.00;99.90;;;;;;4994139;28;20038;-64
2022/11/28 08:01:40;;;;;;;11.13;9.80;;;7.90;99.90;;;;;;5009917;28;20451;-64
2022/11/28 08:04:07;;;;;;;10.80;9.70;;;7.90;99.90;;;;;;5013922;28;20049;-63
2022/11/28 08:06:42;;;;;;;10.68;9.48;;;8.00;99.90;;;;;;4996534;28;20049;-63
2022/11/28 08:09:08;;;;;;;11.70;9.85;;;7.90;99.90;;;;;;4997070;28;20048;-62
2022/11/28 08:11:34;;;;;;;11.90;9.43;;;7.90;99.90;;;;;;4996569;28;20045;-64
2022/11/28 08:14:00;;;;;;;10.88;9.75;;;7.90;99.90;;;;;;4995674;28;20045;-63
2022/11/28 08:16:28;;;;;;;11.27;8.57;;;7.90;99.90;;;;;;4996310;28;20038;-64
2022/11/28 08:18:55;;;;;;;12.10;8.50;;;7.90;99.90;;;;;;4984350;28;20038;-66
2022/11/28 08:21:25;;;;;;;10.55;9.00;;;8.00;99.90;;;;;;4958082;28;20113;-63
2022/11/28 08:23:51;;;;;;;9.75;7.78;;;7.90;99.90;;;;;;4960368;28;20038;-63
2022/11/28 08:26:22;;;;;;;9.63;8.68;;;8.00;99.90;;;;;;4994003;28;20042;-63
2022/11/28 08:28:49;;;;;;;10.55;8.60;;;7.90;99.90;;;;;;4993207;28;20382;-64
2022/11/28 08:31:20;;;;;;;10.60;8.38;;;8.00;99.90;;;;;;4993911;28;20078;-64
2022/11/28 08:33:48;;;;;;;9.60;8.40;;;8.10;99.90;;;;;;4993364;28;20070;-65
2022/11/28 08:36:15;;;;;;;9.82;8.88;;;8.00;99.90;;;;;;4993919;28;20054;-63
2022/11/28 08:38:42;;;;;;;9.10;8.20;;;8.00;99.90;;;;;;4976196;28;20046;-63
2022/11/28 08:41:18;;;;;;;9.15;8.10;;;8.10;99.90;;;;;;4993587;28;20107;-63
2022/11/28 08:43:44;;;;;;;10.27;8.05;;;8.10;99.90;;;;;;4993058;28;20046;-62
2022/11/28 08:46:15;;;;;;;9.57;7.47;;;8.00;99.90;;;;;;4993262;28;20045;-62
2022/11/28 08:48:42;;;;;;;9.80;8.23;;;8.00;99.90;;;;;;4992921;28;20088;-63
2022/11/28 08:51:13;;;;;;;9.82;8.68;;;8.10;99.90;;;;;;4993449;28;20148;-64
2022/11/28 08:53:39;;;;;;;8.73;7.82;;;8.20;99.90;;;;;;4975261;28;20108;-64
2022/11/28 08:56:05;;;;;;;9.20;8.15;;;8.10;99.90;;;;;;4993139;28;20406;-63
2022/11/28 08:58:31;;;;;;;10.50;8.23;;;8.20;99.90;;;;;;4988885;28;20080;-63
2022/11/28 09:00:56;;;;;;;9.10;7.93;;;8.20;99.90;;;;;;4993900;28;20045;-62
2022/11/28 09:03:22;;;;;;;8.70;6.82;;;8.20;99.90;;;;;;4988294;28;20054;-66
2022/11/28 09:05:47;;;;;;;9.10;7.82;;;8.10;99.90;;;;;;4993171;28;20049;-62
2022/11/28 09:08:15;;;;;;;8.93;8.02;;;8.20;99.90;;;;;;4975225;28;20216;-63
2022/11/28 09:10:42;;;;;;;9.45;8.45;;;8.20;99.90;;;;;;4975415;28;20455;-63
2022/11/28 09:13:08;;;;;;;9.27;8.38;;;8.20;99.90;;;;;;4991033;28;20050;-63
2022/11/28 09:15:38;;;;;;;9.88;7.97;;;8.20;99.90;;;;;;4975263;28;20058;-63
2022/11/28 09:18:03;;;;;;;8.68;6.90;;;8.20;99.90;;;;;;4974923;28;20038;-63
2022/11/28 09:20:29;;;;;;;9.95;8.15;;;8.30;99.90;;;;;;4975120;28;20050;-63
2022/11/28 09:22:54;;;;;;;9.45;8.45;;;8.30;99.90;;;;;;4974706;28;20348;-65
2022/11/28 09:25:20;;;;;;;10.07;8.45;;;8.30;99.90;;;;;;4975607;28;20133;-64
2022/11/28 09:27:45;;;;;;;9.40;8.40;;;8.30;99.90;;;;;;4975125;28;20104;-64
2022/11/28 09:30:11;;;;;;;10.00;8.88;;;8.40;99.90;;;;;;4992625;28;20491;-64
2022/11/28 09:32:37;;;;;;;9.55;8.55;;;8.40;99.90;;;;;;4991564;28;20426;-63
2022/11/28 09:35:02;;;;;;;10.77;8.73;;;8.30;99.90;;;;;;4966334;28;20069;-63
2022/11/28 09:37:28;;;;;;;9.80;7.20;;;8.40;99.90;;;;;;4960095;28;20059;-63
2022/11/28 09:39:54;;;;;;;9.07;8.18;;;8.40;99.90;;;;;;4974642;28;20050;-63
2022/11/28 09:42:42;;;;;;;9.23;8.10;;;8.40;99.90;;;;;;4980768;28;20121;-63
2022/11/28 09:45:18;;;;;;;10.32;8.65;;;8.50;99.90;;;;;;4975154;28;20366;-63
2022/11/28 09:47:51;;;;;;;9.60;8.60;;;8.40;99.90;;;;;;4992081;28;20061;-64
2022/11/28 09:50:22;;;;;;;8.88;7.97;;;8.40;99.90;;;;;;4992536;28;20042;-65
2022/11/28 09:53:06;;;;;;;9.25;8.13;;;8.50;99.90;;;;;;4971072;28;20050;-64
2022/11/28 09:55:40;;;;;;;8.02;7.22;;;8.50;99.90;;;;;;4987792;28;20122;-63
2022/11/28 09:58:38;;;;;;;8.52;7.72;;;8.50;99.90;;;;;;4969430;28;20053;-64
2022/11/28 10:01:16;;;;;;;8.88;7.93;;;8.50;99.90;;;;;;4973735;28;20046;-64
2022/11/28 10:03:57;;;;;;;8.38;7.30;;;8.60;99.90;;;;;;4975087;28;20046;-63
2022/11/28 10:07:01;;;;;;;8.63;7.68;;;8.60;99.90;;;;;;4962424;28;20051;-64
2022/11/28 10:09:32;;;;;;;8.60;7.75;;;8.50;99.90;;;;;;4966086;28;20062;-63
2022/11/28 10:12:35;;;;;;;8.27;7.30;;;8.60;99.90;;;;;;4968794;28;20312;-63
2022/11/28 10:15:36;;;;;;;9.07;6.97;;;8.50;99.90;;;;;;4953624;28;20051;-64
2022/11/28 10:18:32;;;;;;;9.13;6.60;;;8.60;99.90;;;;;;4972950;28;20066;-62
2022/11/28 10:21:01;;;;;;;8.93;7.47;;;8.60;99.90;;;;;;4971446;28;20145;-63
2022/11/28 10:23:44;;;;;;;7.97;6.50;;;8.60;99.90;;;;;;4972744;28;20035;-63
2022/11/28 10:26:26;;;;;;;7.60;6.80;;;8.60;99.90;;;;;;4972729;28;20345;-63
2022/11/28 10:28:54;;;;;;;7.30;6.43;;;8.60;99.90;;;;;;4987596;28;20061;-65
2022/11/28 10:31:33;;;;;;;7.57;6.75;;;8.60;99.90;;;;;;4972991;28;20050;-64
2022/11/28 10:34:10;;;;;;;9.68;7.45;;;8.60;99.90;;;;;;4972114;28;20460;-63
2022/11/28 10:36:59;;;;;;;7.35;6.43;;;8.60;99.90;;;;;;4971826;28;20502;-64
2022/11/28 10:39:25;;;;;;;7.47;6.75;;;8.60;99.90;;;;;;4972251;28;20089;-64
2022/11/28 10:42:16;;;;;;;7.35;6.38;;;8.60;99.90;;;;;;4971458;28;20059;-65
2022/11/28 10:44:45;;;;;;;8.38;6.70;;;8.60;99.90;;;;;;4972728;28;20102;-64
2022/11/28 10:47:32;;;;;;;7.85;7.05;;;8.60;99.90;;;;;;4972700;28;20043;-63
2022/11/28 10:50:05;;;;;;;7.53;6.72;;;8.60;99.90;;;;;;4970892;28;20047;-63
2022/11/28 10:52:45;;;;;;;7.20;6.50;;;8.70;99.90;;;;;;4971594;28;20070;-64
2022/11/28 10:55:28;;;;;;;7.82;7.03;;;8.70;99.90;;;;;;4975453;28;20050;-64
2022/11/28 10:58:03;;;;;;;7.47;6.50;;;8.70;99.90;;;;;;4976074;28;20045;-64
2022/11/28 11:00:29;;;;;;;8.10;7.30;;;8.70;99.90;;;;;;4980399;28;20478;-64
2022/11/28 11:02:57;;;;;;;8.15;7.35;;;8.70;99.90;;;;;;4983737;28;20047;-64
2022/11/28 11:05:28;;;;;;;7.50;6.63;;;8.70;99.90;;;;;;4980342;28;20053;-65
2022/11/28 11:07:57;;;;;;;8.32;7.43;;;8.70;99.90;;;;;;4985053;28;20054;-64
2022/11/28 11:10:27;;;;;;;7.97;7.18;;;8.80;99.90;;;;;;4961908;28;20068;-64
2022/11/28 11:12:53;;;;;;;9.13;7.75;;;8.80;99.90;;;;;;4972496;28;20200;-64
2022/11/28 11:15:28;;;;;;;8.10;7.25;;;8.80;99.90;;;;;;4964128;28;20473;-63
2022/11/28 11:17:55;;;;;;;7.78;6.97;;;8.80;99.90;;;;;;4960640;28;20066;-64
2022/11/28 11:20:28;;;;;;;8.40;7.43;;;8.80;99.90;;;;;;4963740;28;20078;-64
2022/11/28 11:22:56;;;;;;;8.17;7.23;;;8.80;99.90;;;;;;4946905;28;20069;-63
2022/11/28 11:25:24;;;;;;;8.25;7.35;;;8.80;99.90;;;;;;4964095;28;20039;-65
2022/11/28 11:27:55;;;;;;;8.93;8.02;;;8.80;99.90;;;;;;4958340;28;20116;-65
2022/11/28 11:30:33;;;;;;;9.70;8.13;;;9.00;99.90;;;;;;4963056;28;20046;-64
2022/11/28 11:33:02;;;;;;;9.30;7.43;;;8.90;99.90;;;;;;4970733;28;20053;-63
2022/11/28 11:35:43;;;;;;;8.65;6.85;;;8.90;99.90;;;;;;4974105;28;20074;-63
2022/11/28 11:38:32;;;;;;;8.75;7.85;;;9.00;99.90;;;;;;4964061;28;20047;-64
2022/11/28 11:41:16;;;;;;;8.55;7.65;;;8.90;99.90;;;;;;4974840;28;20034;-63
2022/11/28 11:43:42;;;;;;;9.50;7.95;;;8.90;99.90;;;;;;4973820;28;20416;-64
2022/11/28 11:46:12;;;;;;;8.88;7.72;;;8.90;99.90;;;;;;4975321;28;20088;-64
2022/11/28 11:48:41;;;;;;;9.07;8.05;;;8.90;99.90;;;;;;4975175;28;20043;-64
2022/11/28 11:51:20;;;;;;;8.82;7.90;;;8.90;99.90;;;;;;4975117;28;20042;-64
2022/11/28 11:53:46;;;;;;;8.85;7.95;;;9.00;99.90;;;;;;4954277;29;20099;-65
2022/11/28 11:56:13;;;;;;;9.52;8.18;;;9.00;99.90;;;;;;4954738;29;20145;-64
2022/11/28 11:58:42;;;;;;;9.15;8.20;;;9.00;99.90;;;;;;4955054;28;20047;-65
2022/11/28 12:01:09;;;;;;;8.73;7.93;;;9.10;99.90;;;;;;4952036;28;20441;-64
2022/11/28 12:03:57;;;;;;;9.10;7.90;;;9.00;99.90;;;;;;4939875;28;20062;-65
2022/11/28 12:06:38;;;;;;;8.45;7.55;;;9.00;99.90;;;;;;4936976;29;20317;-64
2022/11/28 12:09:23;;;;;;;9.88;8.18;;;9.00;99.90;;;;;;4951036;29;20654;-64
2022/11/28 12:12:00;;;;;;;9.40;8.40;;;9.00;99.90;;;;;;4955332;29;20043;-65
2022/11/28 12:14:37;;;;;;;9.43;8.43;;;9.10;99.90;;;;;;4955555;28;20126;-65
2022/11/28 12:17:17;;;;;;;9.57;8.57;;;9.10;99.90;;;;;;4955429;28;20043;-64
2022/11/28 12:20:04;;;;;;;9.48;8.48;;;9.10;99.90;;;;;;4947407;29;20047;-64
2022/11/28 12:23:03;;;;;;;11.00;8.95;;;9.10;99.90;;;;;;4954902;28;20035;-64
2022/11/28 12:25:55;;;;;;;10.20;8.73;;;9.10;99.90;;;;;;4955254;29;20040;-65
2022/11/28 12:28:59;;;;;;;9.65;8.10;;;9.10;99.90;;;;;;4948667;28;20468;-65
2022/11/28 12:32:07;;;;;;;10.48;9.38;;;9.20;99.90;;;;;;4943703;29;20380;-65
2022/11/28 12:35:04;;;;;;;11.13;9.88;;;9.20;99.90;;;;;;4955010;28;20044;-64
2022/11/28 12:38:01;;;;;;;10.23;9.05;;;9.20;99.90;;;;;;4954232;28;20456;-64
2022/11/28 12:40:45;;;;;;;10.05;9.05;;;9.20;99.90;;;;;;4952438;29;20031;-65
2022/11/28 12:43:48;;;;;;;10.80;9.35;;;9.20;99.90;;;;;;4946822;29;20035;-64
2022/11/28 12:46:21;;;;;;;12.60;9.90;;;9.30;99.90;;;;;;4954154;28;20109;-65
2022/11/28 12:48:53;;;;;;;12.05;9.50;;;9.10;99.90;;;;;;4945499;28;20044;-65
2022/11/28 12:51:52;;;;;;;12.43;9.77;;;9.20;99.90;;;;;;4941124;28;20086;-64
2022/11/28 12:54:56;;;;;;;11.07;9.50;;;9.20;99.90;;;;;;4977001;28;20055;-65
2022/11/28 12:57:32;;;;;;;11.80;9.80;;;9.20;99.90;;;;;;4956160;28;20081;-65
2022/11/28 13:00:13;;;;;;;10.57;9.30;;;9.20;99.90;;;;;;4975668;28;20046;-63
2022/11/28 13:02:57;;;;;;;11.60;9.40;;;9.20;99.90;;;;;;4985663;28;20038;-64
2022/11/28 13:05:33;;;;;;;10.25;9.15;;;9.30;99.90;;;;;;4975171;28;20031;-65
2022/11/28 13:08:22;;;;;;;11.45;9.77;;;9.20;99.90;;;;;;4982795;28;20398;-65
2022/11/28 13:11:12;;;;;;;10.32;9.18;;;9.20;99.90;;;;;;4971602;28;20030;-64
2022/11/28 13:13:53;;;;;;;11.90;10.02;;;9.20;99.90;;;;;;4990923;28;20045;-65